Home > Products > Valid Products > TAF

000
FTUS41 KOKX 240200 AAA
TAFSWF
TAF AMD
KSWF 240234Z 2403/2506 28008KT P6SM BKN050 OVC150
      TEMPO 2403/2405 5SM -SHRA SCT030 BKN050
     FM240500 33008KT P6SM SCT040 OVC150
     FM241300 36011G19KT P6SM SCT040 SCT150 SCT250
     FM242100 34008KT P6SM SCT250
     FM250200 28004KT P6SM SKC
      AMD NOT SKED=



000
FTUS41 KOKX 240200 AAA
TAFBDR
TAF AMD
KBDR 240230Z 2403/2424 22008KT P6SM SCT120 BKN250
      TEMPO 2403/2404 5SM TSRA SCT030 BKN050CB
     FM240400 26006KT 6SM -SHRA BKN050 OVC120
     FM240700 36009KT P6SM SCT050 OVC120
     FM241400 01012G18KT P6SM SCT050 SCT120 BKN250
     FM242200 36009KT P6SM FEW050 BKN250=



000
FTUS41 KOKX 240200 AAA
TAFISP
TAF AMD
KISP 240230Z 2403/2424 22012KT P6SM VCTS FEW050CB SCT120 BKN250
      TEMPO 2403/2404 5SM SHRA FEW035 SCT050
     FM240400 26009KT 6SM -SHRA VCTS BKN040CB OVC120
     FM240800 35010KT P6SM SCT050 OVC120
     FM241400 35012G18KT P6SM SCT050 SCT120 BKN250
     FM242200 36009KT P6SM FEW050 BKN250=



000
FTUS41 KOKX 240200 AAA
TAFGON
TAF AMD
KGON 240230Z 2403/2424 21008KT P6SM FEW150 BKN250
      TEMPO 2404/2406 5SM TSRA SCT030 BKN050CB
     FM240600 25007KT 5SM SHRA BR BKN040 OVC100
     FM241000 35005KT P6SM BKN040 OVC100
     FM241500 36012KT P6SM VCSH BKN040 OVC080
     FM242200 36008KT P6SM SCT040 BKN080=



000
FTUS41 KOKX 240200 AAA
TAFEWR
TAF AMD
KEWR 240230Z 2403/2506 29008KT P6SM -SHRA VCTS FEW025 SCT050CB
      OVC120
     FM240500 33010KT P6SM SCT050 OVC150
     FM241300 36012G19KT P6SM SCT050 SCT150 BKN250
     FM242100 33010KT P6SM FEW050 BKN250=



000
FTUS41 KOKX 240200 AAA
TAFTEB
TAF AMD
KTEB 240230Z 2403/2424 25007KT P6SM -SHRA VCTS FEW060CB OVC100
     FM240500 35012KT P6SM SCT050 OVC120
     FM241300 34011G18KT P6SM SCT050 SCT150 BKN250
     FM242100 33010KT P6SM FEW050 BKN250=



000
FTUS41 KOKX 240200 AAA
TAFLGA
TAF AMD
KLGA 240230Z 2403/2424 27009KT P6SM -SHRA VCTS SCT040CB OVC080
     FM240700 35013KT P6SM SCT050 OVC150
     FM241300 36012G20KT P6SM SCT050 SCT150 BKN250
     FM242200 36009KT P6SM FEW050 BKN250=



000
FTUS41 KOKX 240200 AAA
TAFJFK
TAF AMD
KJFK 240230Z 2403/2506 25010KT 5SM -SHRA BR VCTS SCT040CB OVC100
     FM240700 33008KT P6SM SCT050 OVC150
     FM241300 35012G19KT P6SM SCT050 SCT150 BKN250
     FM242200 33008KT P6SM FEW050 BKN250=



000
FTUS41 KOKX 232300
TAFGON
TAF
KGON 232332Z 2400/2424 21010KT P6SM FEW150 BKN250
      TEMPO 2403/2405 5SM TSRA SCT030 BKN050CB
     FM240500 25007KT 5SM SHRA BR BKN040 OVC100
     FM241000 35005KT P6SM BKN040 OVC100
     FM241500 36012KT P6SM VCSH BKN040 OVC080
     FM242200 36008KT P6SM SCT040 BKN080=



000
FTUS41 KOKX 232300
TAFJFK
TAF
KJFK 232327Z 2400/2506 21016G23KT P6SM FEW050 SCT100 BKN250
      TEMPO 2400/2402 3SM TSRA SCT015 BKN050CB
     FM240200 25010KT 5SM SHRA BR VCTS BKN040CB OVC120
     FM240700 33008KT P6SM SCT050 OVC150
     FM241300 35012G19KT P6SM SCT050 SCT150 BKN250
     FM242200 33008KT P6SM FEW050 BKN250=



000
FTUS41 KOKX 232300
TAFTEB
TAF
KTEB 232327Z 2400/2424 22010KT P6SM SCT050 SCT150 BKN250
      TEMPO 2400/2402 4SM TSRA SCT025 BKN050CB
     FM240200 25007KT 5SM SHRA BR VCTS BKN040CB OVC120
     FM240500 35012KT P6SM SCT050 OVC120
     FM241300 34011G18KT P6SM SCT050 SCT150 BKN250
     FM242100 33010KT P6SM FEW050 BKN250=



000
FTUS41 KOKX 232300
TAFLGA
TAF
KLGA 232327Z 2400/2424 20011KT P6SM FEW060 SCT090 BKN250
      TEMPO 2400/2402 3SM TSRA SCT020 BKN050CB
     FM240200 25012KT 5SM SHRA BR VCTS BKN040CB OVC120
     FM240700 35013KT P6SM SCT050 OVC150
     FM241300 36012G20KT P6SM SCT050 SCT150 BKN250
     FM242200 36009KT P6SM FEW050 BKN250=



000
FTUS41 KOKX 232300
TAFEWR
TAF
KEWR 232327Z 2400/2506 23011KT P6SM FEW050 SCT100 BKN250
      TEMPO 2400/2402 3SM TSRA SCT020 BKN050CB
     FM240200 25008KT 5SM SHRA BR VCTS BKN040CB OVC120
     FM240500 33010KT P6SM SCT050 OVC150
     FM241300 36012G19KT P6SM SCT050 SCT150 BKN250
     FM242100 33010KT P6SM FEW050 BKN250=



000
FTUS41 KOKX 232300
TAFISP
TAF
KISP 232327Z 2400/2424 22012KT P6SM FEW040 SCT150 BKN250
      TEMPO 2402/2404 5SM TSRA SCT015 BKN040CB
     FM240400 26009KT 5SM SHRA BR VCTS BKN040CB OVC120
     FM240800 35010KT P6SM SCT050 OVC120
     FM241400 35012G18KT P6SM SCT050 SCT120 BKN250
     FM242200 36009KT P6SM FEW050 BKN250=



000
FTUS41 KOKX 232300
TAFBDR
TAF
KBDR 232327Z 2400/2424 22010KT P6SM SCT150 BKN250
      TEMPO 2402/2404 5SM TSRA SCT030 BKN050CB
     FM240400 26006KT 5SM SHRA BR BKN050 OVC120
     FM240700 36009KT P6SM SCT050 OVC120
     FM241400 01012G18KT P6SM SCT050 SCT120 BKN250
     FM242200 36009KT P6SM FEW050 BKN250=



000
FTUS41 KOKX 232300
TAFSWF
TAF
KSWF 232327Z 2400/2506 26010KT P6SM SCT040 BKN100 BKN250
      TEMPO 2400/2401 5SM TSRA SCT015 BKN040CB
     FM240100 28008KT 5SM SHRA BR VCTS BKN040CB OVC100
     FM240500 33008KT P6SM SCT040 OVC150
     FM241300 36011G19KT P6SM SCT040 SCT150 SCT250
     FM242100 34008KT P6SM SCT250
     FM250200 28004KT P6SM SKC
      AMD NOT SKED=



000
FTUS41 KOKX 232000 CCA
TAFJFK
TAF COR
KJFK 232058Z 2321/2424 18016G23KT P6SM FEW050 SCT100 SCT250
      TEMPO 2400/2404 28015G30KT 5SM TSRA BKN050CB
     FM240400 26008KT 5SM SHRA BR VCTS BKN040CB OVC120
      TEMPO 2404/2408 3SM TSRA BKN035CB
     FM240800 35008KT P6SM BKN050 OVC150
     FM241500 35012KT P6SM BKN050 BKN150
     FM242100 32008KT P6SM SCT050 BKN200=



000
FTUS41 KOKX 232000 AAA
TAFBDR
TAF AMD
KBDR 232032Z 2321/2418 20014KT P6SM FEW100 SCT250
      TEMPO 2402/2406 28015G30KT 5SM TSRA BKN050CB
     FM240600 VRB04KT 5SM SHRA BR BKN040 OVC120
     FM241000 35008KT P6SM BKN050 OVC150=



000
FTUS41 KOKX 232000 AAA
TAFTEB
TAF AMD
KTEB 232032Z 2321/2418 18012KT P6SM BKN040
      TEMPO 2400/2404 28015G30KT 5SM TSRA BKN050CB
     FM240400 24005KT 5SM SHRA BR VCTS BKN040CB OVC120
      TEMPO 2404/2408 3SM TSRA BKN035CB
     FM240800 33005KT P6SM BKN050 OVC150
     FM241500 35008KT P6SM BKN050 BKN150=



000
FTUS41 KOKX 232000 AAA
TAFGON
TAF AMD
KGON 232032Z 2321/2418 21010KT P6SM FEW250
      TEMPO 2403/2407 28015G30KT 5SM TSRA BKN050CB
     FM240700 28008KT 5SM SHRA BR BKN040 OVC120
     FM241200 35010KT P6SM BKN050 OVC150=



000
FTUS41 KOKX 232000 AAA
TAFSWF
TAF AMD
KSWF 232032Z 2321/2424 22009KT P6SM SCT040 SCT100
      TEMPO 2400/2403 28015G30KT 5SM TSRA BKN050CB
     FM240300 28008KT 5SM SHRA BR VCTS BKN040CB OVC120
     FM240700 32008KT P6SM BKN050 OVC150
     FM241500 35011KT P6SM BKN050 BKN150
     FM242100 35008KT P6SM SCT050 BKN200
      AMD NOT SKED=



000
FTUS41 KOKX 232000 AAA
TAFJFK
TAF AMD
KJFK 232032Z 2321/2424 18016KT P6SM FEW050 SCT100 SCT250
      TEMPO 2400/2404 28015G30KT 5SM TSRA BKN050CB
     FM240400 26008KT 5SM SHRA BR VCTS BKN040CB OVC120
      TEMPO 2404/2408 3SM TSRA BKN035CB
     FM240800 35008KT P6SM BKN050 OVC150
     FM241500 35012KT P6SM BKN050 BKN150
     FM242100 32008KT P6SM SCT050 BKN200=



000
FTUS41 KOKX 232000 AAA
TAFLGA
TAF AMD
KLGA 232032Z 2321/2418 18014G19KT P6SM FEW050 SCT100 SCT250
     FM240000 23008KT P6SM BKN050 OVC150
      TEMPO 2400/2404 28015G30KT 5SM TSRA BKN050CB
     FM240400 28008KT 5SM SHRA BR VCTS BKN040CB OVC120
      TEMPO 2404/2408 3SM TSRA BKN035CB
     FM240800 35008KT P6SM BKN050 OVC150
     FM241500 35010KT P6SM BKN050 BKN150=



000
FTUS41 KOKX 232000 AAA
TAFISP
TAF AMD
KISP 232032Z 2321/2418 20012KT P6SM SCT250
      TEMPO 2402/2406 28015G30KT 5SM TSRA BKN050CB
     FM240600 26008KT 5SM SHRA BR BKN040 OVC120
     FM241000 35010KT P6SM BKN050 OVC150=



000
FTUS41 KOKX 232000 AAA
TAFEWR
TAF AMD
KEWR 232032Z 2321/2424 19012KT P6SM BKN040
      TEMPO 2400/2404 28015G30KT 5SM TSRA BKN050CB
     FM240400 24008KT 5SM SHRA BR VCTS BKN040CB OVC120
      TEMPO 2404/2408 3SM TSRA BKN035CB
     FM240800 33008KT P6SM BKN050 OVC150
     FM241500 35012KT P6SM BKN050 BKN150
     FM242100 33008KT P6SM SCT050 BKN200=



000
FTUS41 KOKX 231700
TAFBDR
TAF
KBDR 231731Z 2318/2418 20010KT P6SM SCT100 SCT250
      TEMPO 2402/2406 28015G30KT 5SM TSRA BKN050CB
     FM240600 VRB04KT 5SM SHRA BR BKN040 OVC120
     FM241000 35008KT P6SM BKN050 OVC150=



000
FTUS41 KOKX 231700
TAFLGA
TAF
KLGA 231731Z 2318/2418 18012G17KT P6SM FEW050 SCT100 SCT250
     FM240000 23008KT P6SM BKN050 OVC150
      TEMPO 2400/2404 28015G30KT 5SM TSRA BKN050CB
     FM240400 28008KT 5SM SHRA BR VCTS BKN040CB OVC120 PROB30
      2404/2408 3SM TSRA BKN035CB
     FM240800 35008KT P6SM BKN050 OVC150
     FM241500 35010KT P6SM BKN050 BKN150=



000
FTUS41 KOKX 231700
TAFISP
TAF
KISP 231731Z 2318/2418 20012KT P6SM FEW030 SCT100 SCT250
      TEMPO 2402/2406 28015G30KT 5SM TSRA BKN050CB
     FM240600 26008KT 5SM SHRA BR BKN040 OVC120
     FM241000 35010KT P6SM BKN050 OVC150=



000
FTUS41 KOKX 231700
TAFGON
TAF
KGON 231731Z 2318/2418 20008KT P6SM SCT100 SCT250
      TEMPO 2403/2407 28015G30KT 5SM TSRA BKN050CB
     FM240700 28008KT 5SM SHRA BR BKN040 OVC120
     FM241200 35010KT P6SM BKN050 OVC150=



000
FTUS41 KOKX 231700
TAFJFK
TAF
KJFK 231731Z 2318/2424 18012KT P6SM FEW050 SCT100 SCT250
      TEMPO 2400/2404 28015G30KT 5SM TSRA BKN050CB
     FM240400 26008KT 5SM SHRA BR VCTS BKN040CB OVC120 PROB30
      2404/2408 3SM TSRA BKN035CB
     FM240800 35008KT P6SM BKN050 OVC150
     FM241500 35012KT P6SM BKN050 BKN150
     FM242100 32008KT P6SM SCT050 BKN200=



000
FTUS41 KOKX 231700
TAFSWF
TAF
KSWF 231731Z 2318/2424 20008KT P6SM SCT040
      TEMPO 2318/2320 3SM TSRA BKN040CB
     FM232000 25008KT P6SM BKN040
      TEMPO 2400/2403 28015G30KT 5SM TSRA BKN050CB
     FM240300 28008KT 5SM SHRA BR VCTS BKN040CB OVC120 PROB30
      2403/2407 3SM TSRA BKN035CB
     FM240700 32008KT P6SM BKN050 OVC150
     FM241500 35011KT P6SM BKN050 BKN150
     FM242100 35008KT P6SM SCT050 BKN200
      AMD NOT SKED=



000
FTUS41 KOKX 231700
TAFTEB
TAF
KTEB 231731Z 2318/2418 18010KT P6SM BKN040
      TEMPO 2400/2404 28015G30KT 5SM TSRA BKN050CB
     FM240400 24005KT 5SM SHRA BR VCTS BKN040CB OVC120 PROB30
      2404/2408 3SM TSRA BKN035CB
     FM240800 33005KT P6SM BKN050 OVC150
     FM241500 35008KT P6SM BKN050 BKN150=



000
FTUS41 KOKX 231700
TAFEWR
TAF
KEWR 231731Z 2318/2424 18012KT P6SM BKN040
      TEMPO 2400/2404 28015G30KT 5SM TSRA BKN050CB
     FM240400 24008KT 5SM SHRA BR VCTS BKN040CB OVC120 PROB30
      2404/2408 3SM TSRA BKN035CB
     FM240800 33008KT P6SM BKN050 OVC150
     FM241500 35012KT P6SM BKN050 BKN150
     FM242100 33008KT P6SM SCT050 BKN200=



000
FTUS41 KOKX 231400 AAA
TAFEWR
TAF AMD
KEWR 231430Z 2315/2418 22007KT P6SM SCT250
     FM231700 20012KT P6SM SCT050 BKN250
      TEMPO 2323/2401 28015G30KT 5SM TSRA BKN050CB
     FM240100 24006KT P6SM SCT050 BKN250 PROB30 2401/2405 5SM TSRA
      BKN050CB
     FM240600 VRB05KT P6SM BKN120
     FM240800 31006KT P6SM BKN200
     FM241000 33008KT 6SM -SHRA BKN050=



000
FTUS41 KOKX 231400 AAA
TAFTEB
TAF AMD
KTEB 231430Z 2315/2412 22008KT P6SM FEW100 SCT250
     FM231800 20010KT P6SM SCT050 BKN250
      TEMPO 2323/2402 28015G30KT 5SM TSRA BKN050CB
     FM240200 VRB04KT P6SM SCT050 BKN250 PROB30 2402/2405 5SM TSRA
      BKN050CB
     FM241000 34006KT 6SM -SHRA BKN050=



000
FTUS41 KOKX 231400 AAA
TAFGON
TAF AMD
KGON 231430Z 2315/2412 19008KT P6SM SCT050
     FM240100 VRB05KT 6SM BR BKN250 PROB30 2405/2410 5SM -TSRA
      BKN050CB=



000
FTUS41 KOKX 231400 AAA
TAFJFK
TAF AMD
KJFK 231430Z 2315/2418 19008KT P6SM FEW040 SCT250
     FM231600 18013KT P6SM SCT050 BKN250
      TEMPO 2323/2403 28015G30KT 5SM TSRA BKN050CB
     FM240300 21007KT P6SM SCT050 BKN250 PROB30 2403/2405 5SM TSRA
      BKN050CB
     FM240600 VRB05KT P6SM BKN120
     FM240800 33006KT P6SM BKN200
     FM241000 36008KT 6SM -SHRA BKN050=



000
FTUS41 KOKX 231400 AAA
TAFBDR
TAF AMD
KBDR 231430Z 2315/2412 22008KT P6SM FEW250
     FM231500 19011KT P6SM SCT050
     FM240100 VRB05KT P6SM SCT050 BKN250 PROB30 2402/2406 5SM TSRA
      BKN050CB
     FM240600 VRB05KT P6SM BKN120
     FM240800 32006KT P6SM BKN200
     FM241100 35006KT 6SM -SHRA BKN050=



000
FTUS41 KOKX 231400 AAA
TAFLGA
TAF AMD
KLGA 231430Z 2315/2412 21009KT P6SM SCT250
     FM231800 19012KT P6SM SCT050 BKN250
      TEMPO 2323/2401 28015G30KT 5SM TSRA BKN050CB
     FM240100 22008KT P6SM SCT050 BKN250 PROB30 2401/2405 5SM TSRA
      BKN050CB
     FM240600 VRB05KT P6SM BKN120
     FM240800 32006KT P6SM BKN200
     FM241000 34008KT 6SM -SHRA BKN050=



000
FTUS41 KOKX 231400 AAA
TAFISP
TAF AMD
KISP 231430Z 2315/2412 22007KT P6SM SCT250
     FM231700 19012KT P6SM SCT050
     FM232300 22007KT P6SM SCT050 BKN250 PROB30 2403/2407 5SM TSRA
      BKN050CB
     FM240700 VRB05KT P6SM BKN120
     FM240900 34006KT P6SM BKN200=



000
FTUS41 KOKX 231400 AAA
TAFSWF
TAF AMD
KSWF 231430Z 2315/2418 25010KT P6SM SCT050 BKN250
     FM240000 28007KT P6SM BKN050 BKN150
      TEMPO 2400/2404 5SM TSRA BKN050CB
     FM240500 31006KT P6SM BKN120
     FM240900 35009KT 6SM -SHRA BKN050
      AMD NOT SKED=



000
FTUS41 KOKX 231100
TAFEWR
TAF
KEWR 231135Z 2312/2418 22007KT P6SM SCT250
     FM231700 20012KT P6SM SCT050 BKN250 PROB30 2323/2401 28015G30KT
      5SM TSRA BKN050CB
     FM240100 24006KT P6SM SCT050 BKN250 PROB30 2401/2405 5SM TSRA
      BKN050CB
     FM240600 VRB05KT P6SM BKN120
     FM240800 31006KT P6SM BKN200
     FM241000 33008KT 6SM -SHRA BKN050=



000
FTUS41 KOKX 231100
TAFISP
TAF
KISP 231135Z 2312/2412 22007KT P6SM SCT250
     FM231700 19012KT P6SM SCT050
     FM232300 22007KT P6SM SCT050 BKN250 PROB30 2403/2407 5SM TSRA
      BKN050CB
     FM240700 VRB05KT P6SM BKN120
     FM240900 34006KT P6SM BKN200=



000
FTUS41 KOKX 231100
TAFBDR
TAF
KBDR 231135Z 2312/2412 22008KT P6SM FEW250
     FM231500 19011KT P6SM SCT050
     FM240100 VRB05KT P6SM SCT050 BKN250 PROB30 2402/2406 5SM TSRA
      BKN050CB
     FM240600 VRB05KT P6SM BKN120
     FM240800 32006KT P6SM BKN200
     FM241100 35006KT 6SM -SHRA BKN050=



000
FTUS41 KOKX 231100
TAFTEB
TAF
KTEB 231135Z 2312/2412 22008KT P6SM FEW100 SCT250
     FM231800 20010KT P6SM SCT050 BKN250 PROB30 2323/2402 28015G30KT
      5SM TSRA BKN050CB
     FM240200 VRB04KT P6SM SCT050 BKN250 PROB30 2402/2405 5SM TSRA
      BKN050CB
     FM241000 34006KT 6SM -SHRA BKN050=



000
FTUS41 KOKX 231100
TAFLGA
TAF
KLGA 231135Z 2312/2412 21009KT P6SM SCT250
     FM231800 19012KT P6SM SCT050 BKN250 PROB30 2323/2401 28015G30KT
      5SM TSRA BKN050CB
     FM240100 22008KT P6SM SCT050 BKN250 PROB30 2401/2405 5SM TSRA
      BKN050CB
     FM240600 VRB05KT P6SM BKN120
     FM240800 32006KT P6SM BKN200
     FM241000 34008KT 6SM -SHRA BKN050=



000
FTUS41 KOKX 231100
TAFJFK
TAF
KJFK 231135Z 2312/2418 22008KT P6SM SCT250
     FM231600 18013KT P6SM SCT050 BKN250 PROB30 2323/2403 28015G30KT
      5SM TSRA BKN050CB
     FM240300 21007KT P6SM SCT050 BKN250 PROB30 2403/2405 5SM TSRA
      BKN050CB
     FM240600 VRB05KT P6SM BKN120
     FM240800 33006KT P6SM BKN200
     FM241000 36008KT 6SM -SHRA BKN050=



000
FTUS41 KOKX 231100
TAFGON
TAF
KGON 231135Z 2312/2412 VRB05KT P6SM FEW250
     FM231300 21008KT P6SM SCT050
     FM240100 VRB05KT 6SM BR BKN250 PROB30 2405/2410 5SM -TSRA
      BKN050CB=



000
FTUS41 KOKX 231100
TAFSWF
TAF
KSWF 231135Z 2312/2418 VRB05KT P6SM SCT070 SCT250
     FM231300 25010KT P6SM SCT050 BKN250 PROB30 2321/2324 28015G30KT
      5SM TSRA BKN050CB
     FM240000 28007KT P6SM BKN050 BKN150 PROB30 2400/2404 5SM TSRA
      BKN050CB
     FM240500 31006KT P6SM BKN120
     FM240900 35009KT 6SM -SHRA BKN050
      AMD NOT SKED=



000
FTUS41 KOKX 230800 AAA
TAFGON
TAF AMD
KGON 230833Z 2309/2406 VRB05KT P6SM FEW250
     FM231300 21008KT P6SM SCT050
     FM240100 VRB05KT 6SM BR BKN250=



000
FTUS41 KOKX 230800 AAA
TAFBDR
TAF AMD
KBDR 230833Z 2309/2406 23008KT P6SM FEW250
     FM231500 20009KT P6SM SCT050
     FM240100 VRB05KT P6SM SCT050 BKN250 PROB30 2401/2406 5SM TSRA
      BKN050CB=



000
FTUS41 KOKX 230800 AAA
TAFLGA
TAF AMD
KLGA 230833Z 2309/2406 22008KT P6SM FEW250
     FM231800 19012KT P6SM SCT050 BKN250 PROB30 2323/2403 5SM TSRA
      BKN050CB
     FM240300 22006KT P6SM SCT050 BKN250 PROB30 2403/2406 5SM TSRA
      BKN050CB=



000
FTUS41 KOKX 230800 AAA
TAFEWR
TAF AMD
KEWR 230833Z 2309/2412 23007KT P6SM FEW250
     FM231700 20012KT P6SM SCT050 BKN250 PROB30 2323/2403 5SM TSRA
      BKN050CB
     FM240300 24006KT P6SM SCT050 BKN250 PROB30 2403/2407 5SM TSRA
      BKN050CB
     FM240700 VRB04KT P6SM BKN120
     FM240900 35006KT P6SM BKN200=



000
FTUS41 KOKX 230800 AAA
TAFTEB
TAF AMD
KTEB 230833Z 2309/2406 VRB05KT P6SM FEW250
     FM231300 23008KT P6SM FEW250
     FM231800 20010KT P6SM SCT050 BKN250 PROB30 2323/2403 5SM TSRA
      BKN050CB
     FM240300 VRB04KT P6SM SCT050 BKN250 PROB30 2403/2406 5SM TSRA
      BKN050CB=



000
FTUS41 KOKX 230800 AAA
TAFJFK
TAF AMD
KJFK 230833Z 2309/2412 22008KT P6SM FEW250
     FM231600 18013KT P6SM SCT050 BKN250 PROB30 2323/2403 5SM TSRA
      BKN050CB
     FM240300 21007KT P6SM SCT050 BKN250 PROB30 2403/2407 5SM TSRA
      BKN050CB
     FM240700 VRB05KT P6SM BKN120
     FM240900 33006KT P6SM BKN200=



000
FTUS41 KOKX 230800 AAA
TAFISP
TAF AMD
KISP 230833Z 2309/2406 22007KT P6SM FEW250
     FM231700 20012KT P6SM SCT050
     FM232300 22007KT P6SM SCT050 BKN250 PROB30 2402/2406 5SM TSRA
      BKN050CB=



000
FTUS41 KOKX 230500 RRA
TAFTEB
TAF
KTEB 230544Z 2306/2406 23007KT P6SM FEW250
     FM231800 20010KT P6SM SCT050 BKN250 PROB30 2323/2403 5SM TSRA
      BKN050CB
     FM240300 VRB04KT P6SM SCT050 BKN250 PROB30 2403/2406 5SM TSRA
      BKN050CB=



000
FTUS41 KOKX 230500 RRA
TAFBDR
TAF
KBDR 230544Z 2306/2406 23008KT P6SM FEW250
     FM231500 20009KT P6SM SCT050
     FM240100 VRB05KT P6SM SCT050 BKN250 PROB30 2401/2406 5SM TSRA
      BKN050CB=



000
FTUS41 KOKX 230500 RRA
TAFSWF
TAF
KSWF 230544Z 2306/2412 VRB04KT P6SM FEW250
     FM231200 25009KT P6SM SCT050 BKN250 PROB30 2319/2324 5SM TSRA
      BKN050CB
     FM240000 28006KT P6SM BKN050 BKN150 PROB30 2400/2405 5SM TSRA
      BKN050CB
     FM240500 31007KT P6SM BKN120
     FM240900 35007KT P6SM BKN120
      TEMPO 2409/2412 4SM BR
      AMD NOT SKED=



000
FTUS41 KOKX 230500 RRA
TAFLGA
TAF
KLGA 230544Z 2306/2406 23009KT P6SM FEW250
     FM231800 19012KT P6SM SCT050 BKN250 PROB30 2323/2403 5SM TSRA
      BKN050CB
     FM240300 22006KT P6SM SCT050 BKN250 PROB30 2403/2406 5SM TSRA
      BKN050CB=



000
FTUS41 KOKX 230500 RRA
TAFJFK
TAF
KJFK 230544Z 2306/2412 22008KT P6SM FEW250
     FM231300 22011KT P6SM FEW050
     FM231600 18013KT P6SM SCT050 BKN250 PROB30 2323/2403 5SM TSRA
      BKN050CB
     FM240300 21007KT P6SM SCT050 BKN250 PROB30 2403/2407 5SM TSRA
      BKN050CB
     FM240700 VRB05KT P6SM BKN120
     FM240900 33006KT P6SM BKN200=



000
FTUS41 KOKX 230500 RRA
TAFGON
TAF
KGON 230544Z 2306/2406 VRB05KT P6SM FEW250
      TEMPO 2308/2311 6SM BR
     FM231300 21008KT P6SM SCT050
     FM240100 VRB05KT 6SM BR BKN250=



000
FTUS41 KOKX 230500 RRA
TAFISP
TAF
KISP 230544Z 2306/2406 22008KT P6SM FEW250
     FM231700 20012KT P6SM SCT050
     FM232300 22007KT P6SM SCT050 BKN250 PROB30 2402/2406 5SM TSRA
      BKN050CB=



000
FTUS41 KOKX 230500 RRA
TAFEWR
TAF
KEWR 230544Z 2306/2412 23007KT P6SM FEW250
     FM231700 20012KT P6SM SCT050 BKN250 PROB30 2323/2403 5SM TSRA
      BKN050CB
     FM240300 24006KT P6SM SCT050 BKN250 PROB30 2403/2407 5SM TSRA
      BKN050CB
     FM240700 VRB04KT P6SM BKN120
     FM240900 35006KT P6SM BKN200=



000
FTUS41 KOKX 230300 AAB
TAFISP
TAF AMD
KISP 230325Z 2303/2324 21009KT P6SM FEW250
     FM230600 21006KT P6SM FEW250
      TEMPO 2308/2311 4SM BR
     FM231500 22008KT P6SM FEW050
     FM231700 20011KT P6SM SCT050=



000
FTUS41 KOKX 230300 AAB
TAFTEB
TAF AMD
KTEB 230324Z 2303/2324 20010KT P6SM FEW250
     FM230600 21005KT P6SM FEW250
     FM231600 23008KT P6SM BKN050 BKN250
     FM232000 19008KT P6SM BKN050 BKN250 PROB30 2322/2324 5SM TSRA
      BKN050CB=



000
FTUS41 KOKX 230300 AAB
TAFJFK
TAF AMD
KJFK 230324Z 2303/2406 22010KT P6SM FEW250
     FM230600 22006KT P6SM FEW250
      TEMPO 2309/2311 5SM BR
     FM231300 22011KT P6SM FEW050
     FM231600 18012KT P6SM SCT050 BKN250
     FM231900 18016KT P6SM SCT050 BKN250 PROB30 2323/2402 5SM TSRA
      BKN050CB
     FM240200 20009KT P6SM SCT050 BKN250 PROB30 2402/2406 5SM TSRA
      BKN050CB=



000
FTUS41 KOKX 230300 AAB
TAFEWR
TAF AMD
KEWR 230324Z 2303/2406 21010KT P6SM FEW250
     FM230600 22006KT P6SM FEW250
     FM231600 24011KT P6SM BKN050 BKN250 PROB30 2322/2402 5SM TSRA
      BKN050CB
     FM240200 26006KT P6SM BKN050 BKN250 PROB30 2402/2406 5SM TSRA
      BKN050CB=



000
FTUS41 KOKX 230300 AAB
TAFLGA
TAF AMD
KLGA 230324Z 2303/2324 22010KT P6SM FEW250
     FM230600 22006KT P6SM FEW250
     FM231300 23010KT P6SM FEW050
     FM231600 18010KT P6SM SCT050 BKN250
     FM231900 18013G17KT P6SM SCT050 BKN250 PROB30 2323/2324 5SM
      TSRA BKN050CB=



000
FTUS41 KOKX 230200 AAA
TAFTEB
TAF AMD
KTEB 230230Z 2303/2324 21005KT P6SM FEW250
     FM231600 23008KT P6SM BKN050 BKN250
     FM232000 19008KT P6SM BKN050 BKN250 PROB30 2322/2324 5SM TSRA
      BKN050CB=



000
FTUS41 KOKX 230200 AAA
TAFGON
TAF AMD
KGON 230230Z 2303/2324 24006KT P6SM FEW250
     FM230600 23004KT 5SM BR FEW250
      TEMPO 2308/2311 3SM BR
     FM231300 21008KT P6SM SCT050
     FM231600 20010KT P6SM FEW050 SCT250=



000
FTUS41 KOKX 230200 AAA
TAFLGA
TAF AMD
KLGA 230230Z 2303/2324 20010KT P6SM FEW250
     FM230400 22006KT P6SM FEW250
     FM231300 23010KT P6SM FEW050
     FM231600 18010KT P6SM SCT050 BKN250
     FM231900 18013G17KT P6SM SCT050 BKN250 PROB30 2323/2324 5SM
      TSRA BKN050CB=



000
FTUS41 KOKX 230200 AAA
TAFEWR
TAF AMD
KEWR 230230Z 2303/2406 22006KT P6SM FEW250
     FM231600 24011KT P6SM BKN050 BKN250 PROB30 2322/2402 5SM TSRA
      BKN050CB
     FM240200 26006KT P6SM BKN050 BKN250 PROB30 2402/2406 5SM TSRA
      BKN050CB=



000
FTUS41 KOKX 230200 AAA
TAFISP
TAF AMD
KISP 230230Z 2303/2324 21006KT P6SM FEW250
      TEMPO 2308/2311 4SM BR
     FM231500 22008KT P6SM FEW050
     FM231700 20011KT P6SM SCT050=



000
FTUS41 KOKX 230200 AAA
TAFBDR
TAF AMD
KBDR 230230Z 2303/2324 22005KT P6SM FEW250
      TEMPO 2308/2311 5SM BR
     FM231500 21008KT P6SM FEW050
     FM231700 20010KT P6SM SCT050=



000
FTUS41 KOKX 230200 AAA
TAFSWF
TAF AMD
KSWF 230230Z 2303/2406 25004KT P6SM FEW250
      TEMPO 2308/2312 5SM BR
     FM231400 23010KT P6SM SCT050 BKN250 PROB30 2319/2324 5SM TSRA
      BKN050CB
     FM240000 26004KT P6SM BKN050 BKN150 PROB30 2400/2404 5SM TSRA
      BKN050CB
     FM240400 28004KT P6SM BKN050 BKN150
      AMD NOT SKED=



000
FTUS41 KOKX 230200 AAA
TAFJFK
TAF AMD
KJFK 230230Z 2303/2406 20010KT P6SM FEW250
     FM230400 22006KT P6SM FEW250
      TEMPO 2309/2311 5SM BR
     FM231300 22011KT P6SM FEW050
     FM231600 18012KT P6SM SCT050 BKN250
     FM231900 18016KT P6SM SCT050 BKN250 PROB30 2323/2402 5SM TSRA
      BKN050CB
     FM240200 20009KT P6SM SCT050 BKN250 PROB30 2402/2406 5SM TSRA
      BKN050CB=



000
FTUS41 KOKX 222300
TAFTEB
TAF
KTEB 222330Z 2300/2324 19008KT P6SM FEW050 SCT250
     FM230200 22005KT P6SM FEW250
      TEMPO 2308/2311 5SM BR
     FM231600 23008KT P6SM BKN050 BKN250
     FM232000 19008KT P6SM BKN050 BKN250 PROB30 2322/2324 5SM TSRA
      BKN050CB=



000
FTUS41 KOKX 222300
TAFLGA
TAF
KLGA 222330Z 2300/2324 18012KT P6SM FEW050 SCT250
     FM230200 20008KT P6SM FEW250
     FM230400 22006KT P6SM FEW250
     FM231300 23010KT P6SM FEW050
     FM231600 18010KT P6SM SCT050 BKN250
     FM231900 18013G17KT P6SM SCT050 BKN250 PROB30 2323/2324 5SM
      TSRA BKN050CB=



000
FTUS41 KOKX 222300
TAFGON
TAF
KGON 222330Z 2300/2324 22006KT P6SM SKC
     FM230600 23004KT 5SM BR SKC
      TEMPO 2308/2311 3SM BR
     FM231300 21008KT P6SM SCT050
     FM231600 20010KT P6SM FEW050 SCT250=



000
FTUS41 KOKX 222300
TAFSWF
TAF
KSWF 222330Z 2300/2406 25006KT P6SM FEW050 SCT250
     FM230200 VRB02KT P6SM FEW050
      TEMPO 2308/2312 5SM BR
     FM231400 23010KT P6SM SCT050 BKN250 PROB30 2319/2324 5SM TSRA
      BKN050CB
     FM240000 26004KT P6SM BKN050 BKN150 PROB30 2400/2404 5SM TSRA
      BKN050CB
     FM240400 28004KT P6SM BKN050 BKN150
      AMD NOT SKED=



000
FTUS41 KOKX 222300
TAFJFK
TAF
KJFK 222330Z 2300/2406 19015KT P6SM FEW050 SCT250
     FM230200 20010KT P6SM FEW250
     FM230400 22006KT P6SM FEW250
      TEMPO 2309/2311 5SM BR
     FM231300 22011KT P6SM FEW050
     FM231600 18012KT P6SM SCT050 BKN250
     FM231900 18016KT P6SM SCT050 BKN250 PROB30 2323/2402 5SM TSRA
      BKN050CB
     FM240200 20009KT P6SM SCT050 BKN250 PROB30 2402/2406 5SM TSRA
      BKN050CB=



000
FTUS41 KOKX 222300
TAFBDR
TAF
KBDR 222330Z 2300/2324 21010KT P6SM FEW250
     FM230200 22005KT P6SM FEW250
      TEMPO 2308/2311 5SM BR
     FM231500 21008KT P6SM FEW050
     FM231700 20010KT P6SM SCT050=



000
FTUS41 KOKX 222300
TAFISP
TAF
KISP 222330Z 2300/2324 21009KT P6SM FEW250
     FM230300 21006KT P6SM SKC
      TEMPO 2308/2311 4SM BR
     FM231500 22008KT P6SM FEW050
     FM231700 20011KT P6SM SCT050=



000
FTUS41 KOKX 222300
TAFEWR
TAF
KEWR 222330Z 2300/2406 23010KT P6SM FEW050 SCT250
     FM230200 23006KT P6SM FEW250
     FM231600 24011KT P6SM BKN050 BKN250 PROB30 2322/2402 5SM TSRA
      BKN050CB
     FM240200 26006KT P6SM BKN050 BKN250 PROB30 2402/2406 5SM TSRA
      BKN050CB=



000
FTUS41 KOKX 222200 AAB
TAFJFK
TAF AMD
KJFK 222209Z 2222/2324 19017KT P6SM FEW250
     FM230200 20010KT P6SM SKC
     FM230400 22007KT P6SM SKC
      TEMPO 2309/2312 4SM BR
     FM231600 22012KT P6SM FEW040
     FM231800 20012KT P6SM SCT040 BKN250 PROB30 2319/2324 P6SM TSRA
      BKN040CB=



000
FTUS41 KOKX 222100 AAC
TAFEWR
TAF AMD
KEWR 222116Z 2221/2324 24010KT P6SM FEW060 FEW250
     FM230200 22007KT P6SM FEW050
     FM231600 22010KT P6SM FEW040
     FM231800 22012KT P6SM SCT040 BKN250 PROB30 2318/2324 P6SM TSRA
      BKN040CB=



000
FTUS41 KOKX 222000 AAB
TAFEWR
TAF AMD
KEWR 222029Z 2220/2324 23008KT P6SM FEW060 FEW250
      TEMPO 2221/2223 15009KT
     FM230200 22007KT P6SM FEW050
     FM231600 22010KT P6SM FEW040
     FM231800 22012KT P6SM SCT040 BKN250 PROB30 2318/2324 P6SM TSRA
      BKN040CB=



000
FTUS41 KOKX 222000 AAB
TAFLGA
TAF AMD
KLGA 222029Z 2220/2318 18012G18KT P6SM FEW050 SCT250
     FM230000 20010KT P6SM FEW250
     FM230200 22007KT P6SM FEW050
     FM231600 22012KT P6SM FEW040=



000
FTUS41 KOKX 221900 AAA
TAFTEB
TAF AMD
KTEB 221933Z 2220/2318 22010KT P6SM FEW060 FEW250
     FM222100 19010KT P6SM FEW060 FEW250
     FM230300 21005KT P6SM FEW050
      TEMPO 2309/2312 4SM BR
     FM231600 22008KT P6SM FEW040=



000
FTUS41 KOKX 221900 AAA
TAFSWF
TAF AMD
KSWF 221933Z 2220/2324 24010KT P6SM SCT040 SCT100
     FM222300 22007KT P6SM BKN070
     FM230300 VRB02KT P6SM FEW070
      TEMPO 2309/2312 5SM BR
     FM231400 22010KT P6SM FEW030
     FM231800 22012KT P6SM SCT040 BKN250 PROB30 2318/2324 P6SM TSRA
      BKN040CB
      AMD NOT SKED=



000
FTUS41 KOKX 221900 AAA
TAFJFK
TAF AMD
KJFK 221933Z 2220/2324 19014KT P6SM FEW250
     FM230200 22007KT P6SM FEW050
      TEMPO 2309/2312 4SM BR
     FM231600 22012KT P6SM FEW040
     FM231800 20012KT P6SM SCT040 BKN250 PROB30 2319/2324 P6SM TSRA
      BKN040CB=



000
FTUS41 KOKX 221900 AAA
TAFGON
TAF AMD
KGON 221933Z 2220/2318 21010KT P6SM FEW070 FEW250
     FM230000 22006KT P6SM FEW070
     FM230600 23004KT 5SM BR FEW060
     FM231300 21008KT P6SM SCT060=



000
FTUS41 KOKX 221900 AAA
TAFBDR
TAF AMD
KBDR 221933Z 2220/2318 22010KT P6SM FEW050 FEW250
     FM222000 20012KT P6SM FEW250
     FM230200 22005KT P6SM FEW050
     FM231500 21008KT P6SM FEW040
     FM231700 20010KT P6SM SCT040=



000
FTUS41 KOKX 221900 AAA
TAFEWR
TAF AMD
KEWR 221933Z 2220/2324 22008KT P6SM SCT060
     FM222100 17011KT P6SM FEW060 FEW250
     FM230200 22007KT P6SM FEW050
     FM231600 22010KT P6SM FEW040
     FM231800 22012KT P6SM SCT040 BKN250 PROB30 2318/2324 P6SM TSRA
      BKN040CB=



000
FTUS41 KOKX 221900 AAA
TAFISP
TAF AMD
KISP 221933Z 2220/2318 19013G18KT P6SM FEW250
     FM230300 21006KT P6SM FEW050
      TEMPO 2308/2312 4SM BR
     FM231500 22008KT P6SM FEW040
     FM231700 20010KT P6SM SCT040=



000
FTUS41 KOKX 221900 AAA
TAFLGA
TAF AMD
KLGA 221933Z 2220/2318 20015G20KT P6SM FEW050 FEW250
     FM222100 18012G18KT P6SM FEW250
     FM230000 20010KT P6SM FEW250
     FM230200 22007KT P6SM FEW050
     FM231600 22012KT P6SM FEW040=



000
FTUS41 KOKX 221700
TAFBDR
TAF
KBDR 221723Z 2218/2318 22010KT P6SM FEW050 FEW250
     FM222000 20012KT P6SM FEW250
     FM230200 22005KT P6SM FEW050
     FM231500 21008KT P6SM FEW040
     FM231700 20010KT P6SM SCT040=



000
FTUS41 KOKX 221700
TAFISP
TAF
KISP 221723Z 2218/2318 21010KT P6SM FEW050 FEW250
     FM222000 20013KT P6SM FEW250
     FM230300 21006KT P6SM FEW050
      TEMPO 2308/2312 4SM BR
     FM231500 22008KT P6SM FEW040
     FM231700 20010KT P6SM SCT040=



000
FTUS41 KOKX 221700
TAFGON
TAF
KGON 221723Z 2218/2318 24008KT P6SM FEW070 FEW250
     FM222000 21010KT P6SM FEW070 FEW250
     FM230000 22006KT P6SM FEW070
     FM230600 23004KT 5SM BR FEW060
     FM231300 21008KT P6SM SCT060=



000
FTUS41 KOKX 221700
TAFLGA
TAF
KLGA 221723Z 2218/2318 24008KT P6SM FEW050 FEW250
     FM221900 20012KT P6SM FEW050 FEW250
     FM222100 18012KT P6SM FEW250
     FM230000 20010KT P6SM FEW250
     FM230200 22007KT P6SM FEW050
     FM231600 22012KT P6SM FEW040=



000
FTUS41 KOKX 221700
TAFTEB
TAF
KTEB 221723Z 2218/2318 22008KT P6SM FEW060 FEW250
     FM222000 19010KT P6SM FEW060 FEW250
     FM230300 21005KT P6SM FEW050
      TEMPO 2309/2312 4SM BR
     FM231600 22008KT P6SM FEW040=



000
FTUS41 KOKX 221700
TAFJFK
TAF
KJFK 221723Z 2218/2324 18012KT P6SM FEW050 FEW250
     FM222100 19016KT P6SM FEW250
     FM230200 22007KT P6SM FEW050
      TEMPO 2309/2312 4SM BR
     FM231600 22012KT P6SM FEW040
     FM231800 20012KT P6SM SCT040 BKN250 PROB30 2319/2324 P6SM TSRA
      BKN040CB=



000
FTUS41 KOKX 221700
TAFSWF
TAF
KSWF 221723Z 2218/2324 24010KT P6SM VCSH SCT040 SCT100
     FM222300 22007KT P6SM BKN070
     FM230300 VRB02KT P6SM FEW070
      TEMPO 2309/2312 5SM BR
     FM231400 22010KT P6SM FEW030
     FM231800 22012KT P6SM SCT040 BKN250 PROB30 2318/2324 P6SM TSRA
      BKN040CB
      AMD NOT SKED=



000
FTUS41 KOKX 221700
TAFEWR
TAF
KEWR 221723Z 2218/2324 22008KT P6SM SCT060
     FM222000 17011KT P6SM FEW060 FEW250
     FM230200 22007KT P6SM FEW050
     FM231600 22010KT P6SM FEW040
     FM231800 22012KT P6SM SCT040 BKN250 PROB30 2318/2324 P6SM TSRA
      BKN040CB=



000
FTUS41 KOKX 221400 AAA
TAFTEB
TAF AMD
KTEB 221430Z 2215/2312 25006KT P6SM FEW060 FEW250
     FM221900 19010KT P6SM FEW060 FEW250
     FM230300 21006KT P6SM FEW050=



000
FTUS41 KOKX 221400 AAA
TAFGON
TAF AMD
KGON 221430Z 2215/2312 22008KT P6SM FEW070 FEW250
     FM221900 20010KT P6SM FEW070 FEW250
     FM230000 21006KT P6SM FEW050
     FM230600 23004KT 5SM BR FEW030=



000
FTUS41 KOKX 221400 AAA
TAFEWR
TAF AMD
KEWR 221430Z 2215/2318 22005KT P6SM SCT250
     FM221700 21008KT P6SM SCT060
     FM222000 17011KT P6SM FEW060 FEW250
     FM230100 22007KT P6SM FEW250
     FM231500 21010KT P6SM FEW040=



000
FTUS41 KOKX 221400 AAA
TAFSWF
TAF AMD
KSWF 221430Z 2215/2318 26006KT P6SM FEW100
     FM221900 23009KT P6SM VCSH SCT040 SCT100
     FM222300 22007KT P6SM BKN070
     FM230200 VRB02KT P6SM FEW070
      TEMPO 2309/2312 5SM BR
     FM231400 22010KT P6SM FEW030
      AMD NOT SKED=



000
FTUS41 KOKX 221400 AAA
TAFISP
TAF AMD
KISP 221430Z 2215/2312 24006KT P6SM FEW050 FEW250
     FM221700 21010KT P6SM FEW050 FEW250
     FM221900 19014KT P6SM FEW250
     FM230200 21006KT P6SM FEW050
      TEMPO 2308/2312 5SM BR=



000
FTUS41 KOKX 221400 AAA
TAFJFK
TAF AMD
KJFK 221430Z 2215/2318 24006KT P6SM SCT250
     FM221600 19009KT P6SM FEW050 FEW250
     FM221800 18012KT P6SM FEW250
     FM222100 19016KT P6SM FEW250
     FM230100 21007KT P6SM FEW050
     FM231600 19012KT P6SM FEW030=



000
FTUS41 KOKX 221400 AAA
TAFLGA
TAF AMD
KLGA 221430Z 2215/2312 23005KT P6SM SCT250
     FM221700 20008KT P6SM FEW050 FEW250
     FM221900 18012KT P6SM FEW050 FEW250
     FM222100 18013G17KT P6SM FEW250
     FM230000 20011KT P6SM FEW250
     FM230200 20008KT P6SM FEW250=



000
FTUS41 KOKX 221400 AAA
TAFBDR
TAF AMD
KBDR 221430Z 2215/2312 21008KT P6SM FEW050 FEW250
     FM221700 20010KT P6SM FEW050 FEW250
     FM222000 19013KT P6SM FEW250
     FM230200 22007KT P6SM FEW050=



000
FTUS41 KOKX 221100
TAFJFK
TAF
KJFK 221130Z 2212/2318 24006KT P6SM SCT250
     FM221600 19009KT P6SM FEW050 FEW250
     FM221800 18012KT P6SM FEW250
     FM222100 19016KT P6SM FEW250
     FM230100 21007KT P6SM FEW050
     FM231600 19012KT P6SM FEW030=



000
FTUS41 KOKX 221100
TAFTEB
TAF
KTEB 221130Z 2212/2312 23003KT P6SM SCT250
     FM221400 25006KT P6SM FEW060 FEW250
     FM221900 19010KT P6SM FEW060 FEW250
     FM230300 21006KT P6SM FEW050=



000
FTUS41 KOKX 221100
TAFSWF
TAF
KSWF 221130Z 2212/2318 VRB03KT P6SM FEW250
     FM221400 26006KT P6SM FEW100
     FM221900 23009KT P6SM VCSH SCT040 SCT100
     FM222300 22007KT P6SM BKN070
     FM230200 VRB02KT P6SM FEW070
      TEMPO 2309/2312 5SM BR
     FM231400 22010KT P6SM FEW030
      AMD NOT SKED=



000
FTUS41 KOKX 221100
TAFBDR
TAF
KBDR 221130Z 2212/2312 25005KT P6SM FEW050 FEW250
     FM221500 21008KT P6SM FEW050 FEW250
     FM221700 20010KT P6SM FEW050 FEW250
     FM222000 19013KT P6SM FEW250
     FM230200 22007KT P6SM FEW050=



000
FTUS41 KOKX 221100
TAFGON
TAF
KGON 221130Z 2212/2312 VRB03KT P6SM FEW250
     FM221500 22008KT P6SM FEW070 FEW250
     FM221900 20010KT P6SM FEW070 FEW250
     FM230000 21006KT P6SM FEW050
     FM230600 23004KT 5SM BR FEW030=



000
FTUS41 KOKX 221100
TAFLGA
TAF
KLGA 221130Z 2212/2312 23005KT P6SM SCT250
     FM221700 20008KT P6SM FEW050 FEW250
     FM221900 18012KT P6SM FEW050 FEW250
     FM222100 18013G17KT P6SM FEW250
     FM230000 20011KT P6SM FEW250
     FM230200 20008KT P6SM FEW250=



000
FTUS41 KOKX 221100
TAFEWR
TAF
KEWR 221130Z 2212/2318 24005KT P6SM SCT250
     FM221700 21008KT P6SM SCT060
     FM222000 17011KT P6SM FEW060 FEW250
     FM230100 22007KT P6SM FEW250
     FM231500 21010KT P6SM FEW040=



000
FTUS41 KOKX 221100
TAFISP
TAF
KISP 221130Z 2212/2312 VRB03KT P6SM SCT250
     FM221400 24006KT P6SM FEW050 FEW250
     FM221700 21010KT P6SM FEW050 FEW250
     FM221900 19014KT P6SM FEW250
     FM230200 21006KT P6SM FEW050
      TEMPO 2308/2312 5SM BR=



000
FTUS41 KOKX 220800 AAA
TAFEWR
TAF AMD
KEWR 220830Z 2209/2312 22005KT P6SM FEW250
     FM221100 25005KT P6SM FEW050 FEW250
     FM221700 21008KT P6SM FEW050 FEW250
     FM222000 17011KT P6SM FEW250
     FM230100 22007KT P6SM FEW250=



000
FTUS41 KOKX 220800 AAA
TAFLGA
TAF AMD
KLGA 220830Z 2209/2306 23005KT P6SM FEW250
     FM221700 20008KT P6SM FEW050 FEW250
     FM221900 18012KT P6SM FEW050 FEW250
     FM222100 18013G18KT P6SM FEW250
     FM230200 20008KT P6SM FEW250=



000
FTUS41 KOKX 220800 AAA
TAFGON
TAF AMD
KGON 220830Z 2209/2306 00000KT P6SM SKC
      TEMPO 2209/2211 4SM BR
     FM221500 22008KT P6SM FEW040 FEW250
     FM221800 20010KT P6SM FEW050 FEW250
     FM230000 21006KT P6SM FEW050=



000
FTUS41 KOKX 220800 AAA
TAFBDR
TAF AMD
KBDR 220830Z 2209/2306 23004KT P6SM SKC
     FM221200 25006KT P6SM FEW050 FEW250
     FM221500 21008KT P6SM FEW050 FEW250
     FM221700 20010KT P6SM FEW050 FEW250
     FM222000 19013KT P6SM FEW250
     FM230200 22007KT P6SM FEW050=



000
FTUS41 KOKX 220800 AAA
TAFSWF
TAF AMD
KSWF 220830Z 2209/2312 VRB03KT P6SM SKC
      TEMPO 2209/2211 5SM BR
     FM221300 26006KT P6SM FEW040 SCT100
     FM221700 23008KT P6SM SCT040 SCT100
     FM221900 23009KT P6SM VCSH SCT040 SCT100
     FM222300 24006KT P6SM SCT040 BKN100
      TEMPO 2309/2312 5SM BR
      AMD NOT SKED=



000
FTUS41 KOKX 220800 AAA
TAFTEB
TAF AMD
KTEB 220830Z 2209/2306 VRB03KT P6SM SKC
     FM221400 22006KT P6SM FEW050 FEW250
     FM221900 19010KT P6SM FEW050 FEW250
     FM230300 21006KT P6SM FEW050=



000
FTUS41 KOKX 220800 AAA
TAFJFK
TAF AMD
KJFK 220830Z 2209/2312 23005KT P6SM FEW250
     FM221300 24006KT P6SM FEW050 FEW250
     FM221600 19009KT P6SM FEW050 FEW250
     FM221800 18012KT P6SM FEW250
     FM222100 19016KT P6SM FEW250
     FM230100 21007KT P6SM FEW050=



000
FTUS41 KOKX 220800 AAA
TAFISP
TAF AMD
KISP 220830Z 2209/2306 VRB03KT P6SM SKC
      TEMPO 2209/2211 5SM BR
     FM221300 24006KT P6SM FEW050 FEW250
     FM221700 21010KT P6SM FEW050 FEW250
     FM221900 19014KT P6SM FEW250
     FM230200 21007KT P6SM FEW050=



000
FTUS41 KOKX 220500
TAFSWF
TAF
KSWF 220531Z 2206/2312 VRB03KT P6SM FEW050
      TEMPO 2209/2211 5SM BR
     FM221300 26006KT P6SM FEW040 SCT100
     FM221700 23008KT P6SM SCT040 SCT100 PROB30 2219/2222 5SM -SHRA
      BKN040
     FM230100 24004KT P6SM SCT040 BKN100
      TEMPO 2309/2312 5SM BR
      AMD NOT SKED=



000
FTUS41 KOKX 220500
TAFGON
TAF
KGON 220531Z 2206/2306 00000KT P6SM SCT250
      TEMPO 2209/2211 4SM BR
     FM221500 22008KT P6SM FEW040 SCT100
     FM221800 20010KT P6SM FEW050 SCT100
     FM230000 21006KT P6SM FEW050=



000
FTUS41 KOKX 220500
TAFJFK
TAF
KJFK 220531Z 2206/2312 23004KT P6SM FEW100 SCT250
     FM221300 24006KT P6SM FEW050 SCT100
     FM221600 19009KT P6SM FEW050 SCT100
     FM221800 18012KT P6SM SCT250
     FM222100 19016KT P6SM FEW050 SCT250
     FM230100 21007KT P6SM FEW050 SCT250=



000
FTUS41 KOKX 220500
TAFEWR
TAF
KEWR 220531Z 2206/2312 22005KT P6SM FEW100 SCT250
     FM221100 25005KT P6SM FEW050 SCT100
     FM221700 21008KT P6SM FEW050 SCT100
     FM222000 17011KT P6SM FEW050 SCT250
     FM230100 22008KT P6SM FEW050 SCT250
     FM230600 23006KT P6SM FEW050=



000
FTUS41 KOKX 220500
TAFBDR
TAF
KBDR 220531Z 2206/2306 23004KT P6SM FEW100 SCT250
     FM221200 25006KT P6SM FEW050 SCT100
     FM221500 21008KT P6SM FEW050 SCT100
     FM221700 20010KT P6SM FEW050 SCT100
     FM222000 19013KT P6SM FEW050 SCT100
     FM230200 22007KT P6SM FEW050=



000
FTUS41 KOKX 220500
TAFLGA
TAF
KLGA 220531Z 2206/2306 22005KT P6SM FEW100 SCT250
     FM221000 24005KT P6SM FEW100 SCT250
     FM221700 20008KT P6SM FEW050 SCT100
     FM221900 18012KT P6SM FEW050 SCT250
     FM222100 18013G18KT P6SM FEW050 SCT250
     FM230200 20008KT P6SM FEW050 SCT250=



000
FTUS41 KOKX 220500
TAFISP
TAF
KISP 220531Z 2206/2306 VRB03KT P6SM FEW100 SCT250
      TEMPO 2209/2211 5SM BR
     FM221300 24006KT P6SM FEW050 SCT100
     FM221700 21010KT P6SM FEW050 SCT100
     FM221900 19014KT P6SM FEW050 SCT250
     FM230200 21007KT P6SM FEW050=



000
FTUS41 KOKX 220500
TAFTEB
TAF
KTEB 220531Z 2206/2306 VRB03KT P6SM FEW100 SCT250
     FM221500 21006KT P6SM FEW050 SCT100
     FM221900 19010KT P6SM FEW050 SCT100
     FM230300 21006KT P6SM FEW050=



000
FTUS41 KOKX 220200 AAA
TAFGON
TAF AMD
KGON 220231Z 2203/2224 VRB03KT P6SM SKC
     FM220600 00000KT 4SM BR SCT250
      TEMPO 2207/2210 2SM BR
     FM221500 22008KT P6SM FEW040 SCT100
     FM221800 22010KT P6SM FEW050 SCT100=



000
FTUS41 KOKX 220200 AAA
TAFJFK
TAF AMD
KJFK 220231Z 2203/2306 20006KT P6SM FEW100 SCT250
     FM220600 VRB03KT P6SM FEW100 SCT250
     FM221300 22006KT P6SM FEW050 SCT100
     FM221500 19009KT P6SM FEW050 SCT100
     FM221800 19012KT P6SM SCT250
     FM222100 19015KT P6SM FEW050 SCT250
     FM230100 20009KT P6SM FEW050 SCT250=



000
FTUS41 KOKX 220200 AAA
TAFBDR
TAF AMD
KBDR 220231Z 2203/2224 VRB03KT P6SM FEW100 SCT250
     FM221500 22008KT P6SM FEW050 SCT100
     FM221700 21010KT P6SM FEW050 SCT100
     FM222000 21013KT P6SM FEW050 SCT100=



000
FTUS41 KOKX 220200 AAA
TAFISP
TAF AMD
KISP 220231Z 2203/2224 VRB03KT P6SM FEW100 SCT250
      TEMPO 2208/2212 3SM BR
     FM221300 22006KT P6SM FEW050 SCT100
     FM221700 21010KT P6SM FEW050 SCT100
     FM221900 20015KT P6SM FEW050 SCT250=



000
FTUS41 KOKX 220200 AAA
TAFTEB
TAF AMD
KTEB 220231Z 2203/2224 VRB03KT P6SM FEW100 SCT250
     FM221500 21006KT P6SM FEW050 SCT100
     FM221700 20010KT P6SM FEW050 SCT100=



000
FTUS41 KOKX 220200 AAA
TAFEWR
TAF AMD
KEWR 220231Z 2203/2306 18004KT P6SM FEW100 SCT250
     FM220600 VRB03KT P6SM FEW100 SCT250
     FM221000 23005KT P6SM FEW050 SCT100
     FM221600 21008KT P6SM FEW050 SCT100
     FM221900 21011KT P6SM FEW050 SCT250
     FM230100 22006KT P6SM FEW050 SCT250=



000
FTUS41 KOKX 220200 AAA
TAFLGA
TAF AMD
KLGA 220231Z 2203/2224 20005KT P6SM FEW100 SCT250
     FM221000 24005KT P6SM FEW100 SCT250
     FM221600 19008KT P6SM FEW050 SCT100
     FM221900 18012KT P6SM FEW050 SCT250
     FM222100 18012G17KT P6SM FEW050 SCT250=



000
FTUS41 KOKX 220200 AAA
TAFSWF
TAF AMD
KSWF 220231Z 2203/2306 VRB03KT P6SM SCT050 BKN100
      TEMPO 2208/2212 5SM BR
     FM221300 25006KT P6SM FEW040 SCT100
     FM221700 23006KT P6SM SCT040 SCT100 PROB30 2219/2222 5SM -SHRA
      BKN040
     FM230000 21004KT P6SM SCT040 BKN100
      AMD NOT SKED=



000
FTUS41 KOKX 212300
TAFSWF
TAF
KSWF 212323Z 2200/2306 VRB03KT P6SM FEW050 BKN100
      TEMPO 2208/2212 5SM BR
     FM221300 25006KT P6SM FEW040 SCT100
     FM221700 23006KT P6SM SCT040 SCT100 PROB30 2219/2222 5SM -SHRA
      BKN040
     FM230000 21004KT P6SM SCT040 BKN100
      AMD NOT SKED=



000
FTUS41 KOKX 212300
TAFBDR
TAF
KBDR 212323Z 2200/2224 19005KT P6SM FEW050
     FM220200 VRB03KT P6SM FEW050
     FM221500 22008KT P6SM FEW050 SCT100
     FM221700 21010KT P6SM FEW050 SCT100
     FM222000 21013KT P6SM FEW050 SCT100=



000
FTUS41 KOKX 212300
TAFGON
TAF
KGON 212323Z 2200/2224 VRB03KT P6SM SKC
     FM220600 00000KT 4SM BR SCT250
      TEMPO 2207/2210 2SM BR
     FM221500 22008KT P6SM FEW040 SCT100
     FM221800 22010KT P6SM FEW050 SCT100=



000
FTUS41 KOKX 212300
TAFISP
TAF
KISP 212323Z 2200/2224 20005KT P6SM FEW050 BKN120
     FM220100 VRB03KT P6SM FEW050
      TEMPO 2208/2212 3SM BR
     FM221300 22006KT P6SM FEW050 SCT100
     FM221700 21010KT P6SM FEW050 SCT100
     FM221900 20015KT P6SM FEW050 SCT250=



000
FTUS41 KOKX 212300
TAFLGA
TAF
KLGA 212323Z 2200/2224 18009KT P6SM FEW050 BKN120
     FM220200 20004KT P6SM FEW050
     FM220800 24005KT P6SM FEW050 SCT100
     FM221600 19008KT P6SM FEW050 SCT100
     FM221900 18012KT P6SM FEW050 SCT250
     FM222100 18012G17KT P6SM FEW050 SCT250=



000
FTUS41 KOKX 212300
TAFTEB
TAF
KTEB 212323Z 2200/2224 19007KT P6SM FEW050 BKN120
     FM220200 VRB03KT P6SM FEW050
     FM221500 21006KT P6SM FEW050 SCT100
     FM221700 20010KT P6SM FEW050 SCT100=



000
FTUS41 KOKX 212300
TAFJFK
TAF
KJFK 212323Z 2200/2306 17009KT P6SM FEW050 BKN120
     FM220100 19005KT P6SM FEW050
     FM220600 VRB03KT P6SM FEW050
     FM221300 22006KT P6SM FEW050 SCT100
     FM221500 19009KT P6SM FEW050 SCT100
     FM221800 19012KT P6SM SCT250
     FM222100 19015KT P6SM FEW050 SCT250
     FM230100 20009KT P6SM FEW050 SCT250=



000
FTUS41 KOKX 212300
TAFEWR
TAF
KEWR 212323Z 2200/2306 16008KT P6SM FEW050 BKN120
     FM220100 19004KT P6SM FEW050
     FM220600 VRB03KT P6SM FEW050
     FM221000 23005KT P6SM FEW050 SCT100
     FM221600 21008KT P6SM FEW050 SCT100
     FM221900 21011KT P6SM FEW050 SCT250
     FM230100 22006KT P6SM FEW050 SCT250=



000
FTUS41 KOKX 212000 AAA
TAFBDR
TAF AMD
KBDR 212001Z 2120/2218 20007KT P6SM FEW050
     FM220000 18005KT P6SM FEW050
     FM220200 VRB03KT P6SM FEW050
     FM221500 22008KT P6SM FEW040 SCT100=



000
FTUS41 KOKX 212000 AAA
TAFTEB
TAF AMD
KTEB 212001Z 2120/2218 17006KT P6SM FEW060
     FM220200 VRB03KT P6SM FEW050
     FM221500 21007KT P6SM FEW040=



000
FTUS41 KOKX 212000 AAA
TAFJFK
TAF AMD
KJFK 212001Z 2120/2224 17009KT P6SM FEW050 SCT150
     FM220100 19005KT P6SM FEW050
     FM220600 VRB03KT P6SM FEW040
     FM221300 21006KT P6SM FEW040 SCT100
     FM221500 19009KT P6SM FEW040 SCT100
     FM221800 19012KT P6SM SCT250
     FM222100 19015KT P6SM FEW045 SCT250=



000
FTUS41 KOKX 212000 AAA
TAFEWR
TAF AMD
KEWR 212001Z 2120/2224 16007KT P6SM FEW050 SCT150
     FM220100 20004KT P6SM FEW060
     FM220600 VRB03KT P6SM FEW050
     FM220900 22005KT P6SM FEW040
     FM221600 21008KT P6SM FEW040 SCT100
     FM221900 21010KT P6SM FEW050 SCT250=



000
FTUS41 KOKX 212000 AAA
TAFGON
TAF AMD
KGON 212001Z 2120/2218 20007KT P6SM FEW040
     FM212300 20005KT P6SM FEW040
     FM220000 VRB03KT P6SM FEW040
     FM220600 00000KT 4SM BR SCT250
      TEMPO 2207/2210 2SM BR
     FM221500 22008KT P6SM FEW040 SCT100=



000
FTUS41 KOKX 212000 AAA
TAFLGA
TAF AMD
KLGA 212001Z 2120/2218 VRB06KT P6SM FEW060 FEW150
     FM212100 17008KT P6SM SCT050
     FM220200 20004KT P6SM FEW050
     FM220800 24005KT P6SM FEW040 SCT100=



000
FTUS41 KOKX 212000 AAB
TAFISP
TAF AMD
KISP 212001Z 2120/2218 16008KT P6SM FEW050
     FM220000 VRB03KT P6SM FEW050
      TEMPO 2208/2212 3SM BR
     FM221300 22006KT P6SM FEW050 SCT100=



000
FTUS41 KOKX 211900 AAA
TAFISP
TAF AMD
KISP 211919Z 2119/2218 16008KT P6SM FEW050
     FM220000 VRB03KT P6SM FEW050
      TEMPO 2208/2212 3SM BR
     FM221300 22006KT P6SM FEW050 SCT100=



000
FTUS41 KOKX 211700 RRA
TAFSWF
TAF
KSWF 211750Z 2118/2224 17005KT P6SM SCT045
     FM212000 23006KT P6SM SCT050
     FM220000 VRB03KT P6SM FEW050
      TEMPO 2208/2212 5SM BR
     FM221400 24005KT P6SM SCT035 SCT100
     FM221700 24008KT P6SM VCSH SCT040 SCT100 PROB30 2219/2222 5SM
      -SHRA BKN040=



000
FTUS41 KOKX 211700 RRA
TAFGON
TAF
KGON 211750Z 2118/2218 18009KT P6SM FEW040
     FM212300 17005KT P6SM FEW040
     FM220000 VRB03KT P6SM FEW040
     FM220600 00000KT 4SM BR SCT250
      TEMPO 2207/2210 2SM BR
     FM221500 22008KT P6SM FEW040 SCT100=



000
FTUS41 KOKX 211700 RRA
TAFBDR
TAF
KBDR 211750Z 2118/2218 19008KT P6SM FEW050
     FM220000 18005KT P6SM FEW050
     FM220200 VRB03KT P6SM FEW050
     FM221500 22008KT P6SM FEW040 SCT100=



000
FTUS41 KOKX 211700 RRA
TAFLGA
TAF
KLGA 211741Z 2118/2218 07006KT P6SM SCT045
     FM212000 VRB06KT P6SM SCT050
     FM212200 17009KT P6SM SCT050
     FM220100 21004KT P6SM FEW050
     FM220800 24005KT P6SM FEW040 SCT100=



000
FTUS41 KOKX 211700 RRA
TAFEWR
TAF
KEWR 211741Z 2118/2224 VRB05KT P6SM SCT050
     FM212000 16007KT P6SM SCT050
     FM220100 20005KT P6SM FEW050
     FM220600 VRB03KT P6SM FEW040
     FM220900 22005KT P6SM FEW040
     FM221600 21008KT P6SM FEW040 SCT100
     FM221900 21010KT P6SM FEW050 SCT250=



000
FTUS41 KOKX 211700 RRA
TAFJFK
TAF
KJFK 211741Z 2118/2224 18010KT P6SM SCT040
     FM220100 20004KT P6SM FEW040
     FM220600 23004KT P6SM FEW040
     FM221500 19009KT P6SM SCT100
     FM221800 19012KT P6SM SCT250
     FM222100 19015KT P6SM FEW045 SCT250=



000
FTUS41 KOKX 211700 RRA
TAFISP
TAF
KISP 211741Z 2118/2218 03008KT P6SM FEW050
     FM212100 17007KT P6SM SCT050
     FM220000 VRB03KT P6SM FEW050
      TEMPO 2208/2212 3SM BR
     FM221300 22006KT P6SM FEW050 SCT100=



000
FTUS41 KOKX 211700 RRA
TAFTEB
TAF
KTEB 211741Z 2118/2218 VRB03KT P6SM SCT050
     FM212200 18006KT P6SM FEW050
     FM220200 VRB03KT P6SM FEW050
     FM221500 21007KT P6SM FEW040=



000
FTUS41 KOKX 211400 AAA
TAFGON
TAF AMD
KGON 211410Z 2114/2212 02007KT P6SM FEW025
     FM211500 07008KT P6SM FEW035
     FM211700 18008KT P6SM FEW040
     FM220000 19004KT P6SM FEW040
     FM220300 00000KT P6SM FEW040
      TEMPO 2209/2212 3SM BR=



000
FTUS41 KOKX 211400 AAA
TAFLGA
TAF AMD
KLGA 211410Z 2114/2212 05004KT P6SM FEW025
     FM211900 17009KT P6SM SCT050
     FM220100 19006KT P6SM FEW050
     FM220600 23004KT P6SM FEW050=



000
FTUS41 KOKX 211400 AAA
TAFTEB
TAF AMD
KTEB 211410Z 2114/2212 VRB03KT P6SM SKC
     FM211800 17008KT P6SM SCT050
     FM220100 21003KT P6SM FEW050
     FM220600 24002KT P6SM FEW040=



000
FTUS41 KOKX 211400 AAA
TAFJFK
TAF AMD
KJFK 211410Z 2114/2218 03006KT P6SM FEW030
     FM211600 17008KT P6SM FEW040
     FM211800 18009KT P6SM SCT040
     FM220100 20004KT P6SM FEW040
     FM220600 23004KT P6SM FEW040
     FM221500 21008KT P6SM FEW030=



000
FTUS41 KOKX 211400 AAA
TAFISP
TAF AMD
KISP 211410Z 2114/2212 02008KT P6SM FEW025
     FM211800 17008KT P6SM SCT040
     FM220000 19004KT P6SM FEW040
     FM220300 24004KT P6SM FEW040
      TEMPO 2209/2212 3SM BR=



000
FTUS41 KOKX 211400 AAA
TAFEWR
TAF AMD
KEWR 211410Z 2114/2218 VRB05KT P6SM FEW025 SCT100
     FM211800 16007KT P6SM SCT050
     FM220100 20004KT P6SM FEW050
     FM220600 23004KT P6SM FEW040
     FM221500 21007KT P6SM FEW030=



000
FTUS41 KOKX 211400 AAA
TAFBDR
TAF AMD
KBDR 211410Z 2114/2212 03006KT P6SM SKC
     FM211500 16007KT P6SM FEW045
     FM220000 19004KT P6SM FEW045
     FM220300 24003KT P6SM FEW040=



000
FTUS41 KOKX 211100
TAFSWF
TAF
KSWF 211120Z 2112/2218 00000KT P6SM SCT050
     FM211800 18005KT P6SM SCT035
     FM220000 00000KT P6SM SCT040
      TEMPO 2209/2212 3SM BR SCT003
     FM221500 24005KT P6SM SCT040
      AMD NOT SKED=



000
FTUS41 KOKX 211100
TAFGON
TAF
KGON 211120Z 2112/2212 36004KT P6SM SCT030
     FM211500 07008KT P6SM FEW035
     FM211800 16006KT P6SM FEW040
     FM220000 19004KT P6SM FEW040
     FM220300 00000KT P6SM FEW040
      TEMPO 2209/2212 3SM BR=



000
FTUS41 KOKX 211100
TAFISP
TAF
KISP 211120Z 2112/2212 36004KT P6SM SKC
     FM211800 16008KT P6SM SCT040
     FM220000 19004KT P6SM FEW040
     FM220300 24004KT P6SM FEW040
      TEMPO 2209/2212 3SM BR=



000
FTUS41 KOKX 211100
TAFBDR
TAF
KBDR 211120Z 2112/2212 36004KT P6SM SKC
     FM211500 16006KT P6SM FEW040
     FM220000 19004KT P6SM FEW040
     FM220300 24003KT P6SM FEW040=



000
FTUS41 KOKX 211100
TAFTEB
TAF
KTEB 211120Z 2112/2212 35003KT P6SM SKC
     FM211800 17007KT P6SM SCT040
     FM220100 20003KT P6SM FEW040
     FM220600 24002KT P6SM FEW040=



000
FTUS41 KOKX 211100
TAFEWR
TAF
KEWR 211120Z 2112/2218 34005KT P6SM FEW020
     FM211800 14007KT P6SM SCT040
     FM220100 20004KT P6SM FEW040
     FM220600 23004KT P6SM FEW040
     FM221500 21007KT P6SM FEW030=



000
FTUS41 KOKX 211100
TAFLGA
TAF
KLGA 211120Z 2112/2212 05004KT P6SM FEW020
     FM211900 16009KT P6SM SCT040
     FM220000 18007KT P6SM FEW040
     FM220600 23004KT P6SM FEW040=



000
FTUS41 KOKX 211100
TAFJFK
TAF
KJFK 211120Z 2112/2218 36005KT P6SM FEW020
     FM211600 15006KT P6SM FEW035
     FM211800 18009KT P6SM SCT040
     FM220200 20005KT P6SM FEW040
     FM220600 23004KT P6SM FEW040
     FM221500 21008KT P6SM FEW030=



000
FTUS41 KOKX 210800 AAA
TAFTEB
TAF AMD
KTEB 210833Z 2109/2206 00000KT P6SM SKC
     FM211200 35003KT P6SM SKC
     FM211800 17007KT P6SM SCT040
     FM220100 20003KT P6SM FEW040=



000
FTUS41 KOKX 210800 AAA
TAFISP
TAF AMD
KISP 210833Z 2109/2206 36004KT P6SM SKC
     FM211800 16008KT P6SM SCT040
     FM220000 19004KT P6SM FEW040=



000
FTUS41 KOKX 210800 AAA
TAFLGA
TAF AMD
KLGA 210833Z 2109/2206 05004KT P6SM FEW020
     FM211200 05004KT P6SM SKC
     FM211900 16009KT P6SM SCT040
     FM220000 18007KT P6SM FEW040=



000
FTUS41 KOKX 210800 AAA
TAFEWR
TAF AMD
KEWR 210833Z 2109/2212 VRB03KT P6SM FEW015
     FM211200 35005KT P6SM SKC
     FM211800 14007KT P6SM SCT040
     FM220100 20004KT P6SM FEW040=



000
FTUS41 KOKX 210800 AAB
TAFGON
TAF AMD
KGON 210833Z 2109/2206 36004KT P6SM SCT030
     FM211500 07008KT P6SM FEW035
     FM211800 16006KT P6SM FEW040
     FM220000 19004KT P6SM FEW040=



000
FTUS41 KOKX 210800 AAA
TAFJFK
TAF AMD
KJFK 210833Z 2109/2212 36005KT P6SM FEW015
     FM211600 15006KT P6SM FEW035
     FM211800 18009KT P6SM SCT040
     FM220200 20005KT P6SM FEW040=



000
FTUS41 KOKX 210800 AAA
TAFSWF
TAF AMD
KSWF 210833Z 2109/2212 00000KT P6SM SKC
      TEMPO 2109/2111 5SM BR FEW003
     FM211800 18005KT P6SM SCT035
     FM220000 VRB03KT P6SM SCT040
      AMD NOT SKED=



000
FTUS41 KOKX 210800 AAA
TAFBDR
TAF AMD
KBDR 210833Z 2109/2206 36004KT P6SM SKC
     FM211500 16006KT P6SM FEW040
     FM220000 19004KT P6SM FEW040=



000
FTUS41 KOKX 210700 AAA
TAFGON
TAF AMD
KGON 210735Z 2108/2206 36004KT P6SM SCT020
      TEMPO 2108/2110 BKN020
     FM211500 07008KT P6SM FEW035
     FM211800 16006KT P6SM FEW040
     FM220000 19004KT P6SM FEW040=



000
FTUS41 KOKX 210500
TAFEWR
TAF
KEWR 210540Z 2106/2212 VRB03KT P6SM FEW100
     FM211200 35005KT P6SM SKC
     FM211800 14007KT P6SM SCT040
     FM220100 20004KT P6SM FEW040=



000
FTUS41 KOKX 210500
TAFJFK
TAF
KJFK 210540Z 2106/2212 VRB03KT P6SM FEW100
     FM210900 36005KT P6SM SKC
     FM211600 15006KT P6SM FEW035
     FM211800 18009KT P6SM SCT040
     FM220200 20005KT P6SM FEW040=



000
FTUS41 KOKX 210500
TAFISP
TAF
KISP 210540Z 2106/2206 36004KT P6SM FEW100
     FM211800 16008KT P6SM SCT040
     FM220000 19004KT P6SM FEW040=



000
FTUS41 KOKX 210500
TAFLGA
TAF
KLGA 210540Z 2106/2206 05004KT P6SM FEW100
     FM211900 16009KT P6SM SCT040
     FM220000 18007KT P6SM FEW040=



000
FTUS41 KOKX 210500
TAFTEB
TAF
KTEB 210540Z 2106/2206 00000KT P6SM FEW100
     FM211200 35003KT P6SM SKC
     FM211800 17007KT P6SM SCT040
     FM220100 20003KT P6SM FEW040=



000
FTUS41 KOKX 210500
TAFSWF
TAF
KSWF 210540Z 2106/2212 00000KT P6SM SKC
      TEMPO 2108/2110 5SM BR
     FM211800 18005KT P6SM SCT035
     FM220000 VRB03KT P6SM SCT040
      AMD NOT SKED=



000
FTUS41 KOKX 210500
TAFGON
TAF
KGON 210540Z 2106/2206 36004KT P6SM FEW100
     FM211500 07008KT P6SM FEW035
     FM211800 16006KT P6SM FEW040
     FM220000 19004KT P6SM FEW040=



000
FTUS41 KOKX 210500
TAFBDR
TAF
KBDR 210540Z 2106/2206 36004KT P6SM FEW100
     FM211500 16006KT P6SM FEW040
     FM220000 19004KT P6SM FEW040=



    US Dept of Commerce
    National Oceanic and Atmospheric Administration
    National Weather Service
    1325 East West Highway
    Silver Spring, MD 20910
    Page Author: NWS Internet Services Team
Disclaimer
Information Quality
Credits
Glossary
Privacy Policy
Freedom of Information Act (FOIA)
About Us
Career Opportunities